Time;durP1;ratioP1;P1;durP2;ratioP2;P2;SDS_P1;SDS_P2;PMS_P1;PMS_P2;Temp;Humidity;BMP_temperature;BMP_pressure;BME280_temperature;BME280_humidity;BME280_pressure;Samples;Min_cycle;Max_cycle;Signal;HPM_P1;HPM_P2
2021/11/14 00:00:59;;;;;;;14.90;11.68;;;9.60;95.00;;;;;;2106691;28;20029;-92
2021/11/14 00:02:00;;;;;;;15.45;12.00;;;9.60;95.00;;;;;;2106503;28;20516;-91
2021/11/14 00:03:02;;;;;;;14.35;11.38;;;9.60;95.00;;;;;;2081476;28;20084;-92
2021/11/14 00:04:03;;;;;;;15.93;11.80;;;9.60;95.00;;;;;;2090789;28;20029;-92
2021/11/14 00:05:05;;;;;;;15.07;11.30;;;9.60;95.00;;;;;;2097924;28;20059;-93
2021/11/14 00:06:07;;;;;;;15.60;11.65;;;9.60;95.00;;;;;;2096478;28;20502;-92
2021/11/14 00:07:09;;;;;;;14.30;11.13;;;9.60;95.00;;;;;;2098459;28;20020;-92
2021/11/14 00:08:13;;;;;;;15.15;11.63;;;9.60;95.00;;;;;;2081729;28;20507;-92
2021/11/14 00:09:15;;;;;;;15.68;11.30;;;9.60;95.00;;;;;;2074900;28;20068;-90
2021/11/14 00:10:16;;;;;;;14.27;11.05;;;9.60;95.00;;;;;;2099216;28;20469;-92
2021/11/14 00:11:20;;;;;;;14.57;10.88;;;9.50;95.00;;;;;;2107813;28;20062;-85
2021/11/14 00:12:20;;;;;;;15.07;11.50;;;9.60;95.10;;;;;;2107173;28;20117;-87
2021/11/14 00:13:22;;;;;;;14.32;10.90;;;9.50;95.00;;;;;;2114831;28;20013;-78
2021/11/14 00:14:23;;;;;;;14.93;11.35;;;9.60;95.10;;;;;;2116861;28;20013;-80
2021/11/14 00:15:24;;;;;;;15.15;11.55;;;9.50;95.30;;;;;;2116953;28;20075;-77
2021/11/14 00:16:27;;;;;;;15.18;10.80;;;9.50;95.00;;;;;;2113049;28;20032;-84
2021/11/14 00:17:29;;;;;;;14.73;11.10;;;9.50;95.00;;;;;;2108322;28;20028;-86
2021/11/14 00:18:29;;;;;;;15.30;11.35;;;9.50;95.00;;;;;;2116862;28;20043;-83
2021/11/14 00:19:30;;;;;;;15.18;11.27;;;9.50;95.00;;;;;;2118245;28;20051;-87
2021/11/14 00:20:32;;;;;;;15.43;10.75;;;9.50;95.00;;;;;;2125144;28;20016;-87
2021/11/14 00:21:35;;;;;;;13.95;10.40;;;9.50;95.10;;;;;;2117077;28;20019;-84
2021/11/14 00:22:36;;;;;;;15.05;10.93;;;9.50;95.30;;;;;;2115885;28;20044;-90
2021/11/14 00:23:37;;;;;;;13.95;10.50;;;9.50;95.10;;;;;;2116899;28;20023;-80
2021/11/14 00:24:38;;;;;;;14.23;10.10;;;9.50;95.10;;;;;;2109718;28;20062;-92
2021/11/14 00:25:39;;;;;;;14.95;11.13;;;9.50;95.10;;;;;;2097223;28;20055;-92
2021/11/14 00:26:41;;;;;;;13.98;10.68;;;9.50;95.10;;;;;;2082393;28;20096;-92
2021/11/14 00:27:42;;;;;;;14.40;10.68;;;9.50;95.10;;;;;;2090689;28;20021;-91
2021/11/14 00:28:43;;;;;;;14.25;10.65;;;9.50;95.10;;;;;;2106260;28;20036;-91
2021/11/14 00:29:43;;;;;;;14.88;10.70;;;9.60;95.10;;;;;;2097933;28;20090;-91
2021/11/14 00:30:44;;;;;;;13.40;10.25;;;9.50;95.10;;;;;;2097478;28;20029;-92
2021/11/14 00:31:45;;;;;;;13.43;10.30;;;9.60;95.10;;;;;;2098235;28;20021;-91
2021/11/14 00:32:47;;;;;;;13.45;10.65;;;9.60;95.10;;;;;;2114805;28;20031;-92
2021/11/14 00:33:50;;;;;;;13.85;10.40;;;9.60;95.10;;;;;;2114917;28;20036;-91
2021/11/14 00:34:51;;;;;;;13.00;9.65;;;9.60;95.10;;;;;;2115523;28;20089;-91
2021/11/14 00:35:52;;;;;;;15.02;10.88;;;9.60;95.10;;;;;;2105763;28;20024;-92
2021/11/14 00:36:54;;;;;;;13.40;9.77;;;9.60;95.10;;;;;;2097538;28;20402;-91
2021/11/14 00:37:55;;;;;;;15.20;11.07;;;9.60;95.10;;;;;;2091677;28;20035;-91
2021/11/14 00:38:56;;;;;;;14.27;10.88;;;9.60;95.10;;;;;;2110029;28;20024;-91
2021/11/14 00:39:57;;;;;;;13.73;9.65;;;9.70;95.10;;;;;;2117834;28;20060;-92
2021/11/14 00:40:58;;;;;;;13.32;10.18;;;9.60;95.10;;;;;;2106722;28;20028;-92
2021/11/14 00:41:58;;;;;;;13.20;10.07;;;9.70;95.10;;;;;;2090321;28;20041;-90
2021/11/14 00:43:00;;;;;;;14.18;10.50;;;9.70;95.10;;;;;;2098169;28;20106;-91
2021/11/14 00:44:01;;;;;;;13.35;9.95;;;9.70;95.10;;;;;;2108374;28;20020;-91
2021/11/14 00:45:05;;;;;;;12.48;9.43;;;9.70;95.00;;;;;;2109016;28;20042;-91
2021/11/14 00:46:07;;;;;;;13.10;9.52;;;9.70;95.00;;;;;;2113302;28;20024;-92
2021/11/14 00:47:09;;;;;;;12.48;9.63;;;9.70;95.00;;;;;;2115367;28;20020;-91
2021/11/14 00:48:10;;;;;;;13.85;10.48;;;9.70;95.00;;;;;;2122698;28;20020;-92
2021/11/14 00:49:11;;;;;;;12.15;9.52;;;9.70;95.00;;;;;;2103361;28;20028;-92
2021/11/14 00:50:12;;;;;;;13.52;10.25;;;9.70;95.00;;;;;;2108815;28;20016;-93
2021/11/14 00:51:17;;;;;;;14.27;10.38;;;9.70;95.00;;;;;;2104444;28;20453;-92
2021/11/14 00:52:18;;;;;;;14.02;10.68;;;9.70;95.00;;;;;;2107715;28;20561;-92
2021/11/14 00:53:19;;;;;;;12.40;9.60;;;9.70;95.00;;;;;;2098756;28;20017;-91
2021/11/14 00:54:19;;;;;;;13.00;9.48;;;9.70;95.00;;;;;;2082563;28;20475;-92
2021/11/14 00:55:21;;;;;;;12.80;10.13;;;9.70;95.30;;;;;;2099710;28;20067;-92
2021/11/14 00:56:22;;;;;;;13.07;10.18;;;9.70;95.00;;;;;;2115314;28;20370;-91
2021/11/14 00:57:23;;;;;;;13.27;9.77;;;9.70;95.00;;;;;;2108024;28;20054;-91
2021/11/14 00:58:25;;;;;;;14.05;9.85;;;9.70;94.90;;;;;;2099683;28;20535;-92
2021/11/14 00:59:26;;;;;;;13.23;10.00;;;9.70;94.90;;;;;;2099765;28;20052;-92
2021/11/14 01:00:28;;;;;;;13.57;10.20;;;9.70;95.10;;;;;;2108459;28;20032;-92
2021/11/14 01:01:29;;;;;;;12.88;9.55;;;9.70;94.90;;;;;;2108110;28;20075;-92
2021/11/14 01:02:29;;;;;;;14.35;9.90;;;9.70;94.90;;;;;;2113664;28;20104;-93
2021/11/14 01:03:30;;;;;;;13.77;10.20;;;9.70;94.90;;;;;;2113156;28;20024;-92
2021/11/14 01:04:31;;;;;;;14.40;10.65;;;9.70;94.90;;;;;;2111416;28;20040;-92
2021/11/14 01:05:33;;;;;;;15.23;10.77;;;9.70;94.90;;;;;;2109286;28;20067;-92
2021/11/14 01:06:33;;;;;;;13.48;9.93;;;9.70;94.90;;;;;;2098339;28;20452;-92
2021/11/14 01:07:35;;;;;;;14.18;10.15;;;9.70;95.00;;;;;;2081339;28;20037;-92
2021/11/14 01:08:36;;;;;;;13.55;10.15;;;9.70;95.00;;;;;;2099390;28;20066;-91
2021/11/14 01:09:39;;;;;;;14.23;10.25;;;9.70;95.20;;;;;;2101726;28;20021;-90
2021/11/14 01:10:44;;;;;;;13.77;10.13;;;9.70;95.00;;;;;;2115059;28;20201;-92
2021/11/14 01:11:45;;;;;;;13.63;10.15;;;9.60;95.00;;;;;;2109541;28;20099;-92
2021/11/14 01:12:46;;;;;;;14.52;10.50;;;9.60;95.00;;;;;;2112933;28;20080;-92
2021/11/14 01:13:47;;;;;;;13.93;10.48;;;9.60;95.00;;;;;;2116188;28;20051;-92
2021/11/14 01:14:48;;;;;;;14.15;10.50;;;9.60;95.00;;;;;;2115716;28;20039;-92
2021/11/14 01:15:52;;;;;;;15.30;11.15;;;9.60;95.00;;;;;;2108068;28;20038;-92
2021/11/14 01:16:52;;;;;;;14.23;10.13;;;9.60;95.00;;;;;;2107527;28;20027;-92
2021/11/14 01:17:54;;;;;;;14.25;10.20;;;9.60;95.00;;;;;;2107191;28;20080;-91
2021/11/14 01:18:55;;;;;;;13.88;9.93;;;9.60;95.10;;;;;;2109204;28;20008;-91
2021/11/14 01:19:57;;;;;;;12.75;9.50;;;9.60;95.10;;;;;;2114888;28;20091;-86
2021/11/14 01:21:00;;;;;;;13.77;10.40;;;9.50;95.00;;;;;;2099680;28;20005;-89
2021/11/14 01:22:00;;;;;;;13.43;9.55;;;9.50;95.00;;;;;;2104263;28;20017;-90
2021/11/14 01:23:03;;;;;;;12.75;9.77;;;9.50;95.00;;;;;;2113205;28;20095;-91
2021/11/14 01:24:04;;;;;;;14.23;10.40;;;9.50;95.10;;;;;;2107702;28;20065;-92
2021/11/14 01:25:06;;;;;;;15.38;10.57;;;9.50;95.10;;;;;;2110221;28;20048;-91
2021/11/14 01:26:07;;;;;;;13.10;10.32;;;9.50;95.10;;;;;;2117816;27;20066;-91
2021/11/14 01:27:08;;;;;;;13.25;10.27;;;9.50;95.10;;;;;;2104072;28;20020;-91
2021/11/14 01:28:08;;;;;;;14.45;10.10;;;9.50;95.10;;;;;;2111035;28;20070;-91
2021/11/14 01:29:10;;;;;;;14.63;9.90;;;9.40;95.10;;;;;;2115074;28;20032;-91
2021/11/14 01:30:14;;;;;;;14.35;10.65;;;9.40;95.10;;;;;;2102089;28;20033;-90
2021/11/14 01:31:15;;;;;;;14.05;10.68;;;9.40;95.10;;;;;;2107292;28;20016;-92
2021/11/14 01:32:15;;;;;;;13.82;10.43;;;9.40;95.00;;;;;;2104754;28;20031;-91
2021/11/14 01:33:17;;;;;;;13.95;10.60;;;9.40;95.00;;;;;;2099556;28;20028;-91
2021/11/14 01:34:18;;;;;;;14.85;11.00;;;9.40;95.10;;;;;;2107531;28;20012;-91
2021/11/14 01:35:19;;;;;;;13.20;9.98;;;9.40;95.10;;;;;;2101276;28;20025;-90
2021/11/14 01:36:20;;;;;;;14.30;10.82;;;9.40;95.10;;;;;;2104268;28;20422;-90
2021/11/14 01:37:20;;;;;;;13.38;9.93;;;9.40;95.10;;;;;;2114913;28;20031;-92
2021/11/14 01:38:23;;;;;;;13.10;9.82;;;9.40;95.10;;;;;;2114124;28;20066;-92
2021/11/14 01:39:23;;;;;;;13.55;10.40;;;9.30;95.10;;;;;;2099284;28;20071;-91
2021/11/14 01:40:28;;;;;;;12.93;9.60;;;9.30;95.10;;;;;;2098962;28;20589;-91
2021/11/14 01:41:29;;;;;;;14.32;10.10;;;9.40;95.20;;;;;;2099742;28;20111;-91
2021/11/14 01:42:29;;;;;;;13.20;9.82;;;9.30;95.20;;;;;;2108386;28;20401;-91
2021/11/14 01:43:37;;;;;;;13.10;9.52;;;9.30;95.20;;;;;;2107678;28;20074;-92
2021/11/14 01:44:37;;;;;;;12.43;9.48;;;9.30;95.20;;;;;;2107515;28;20035;-92
2021/11/14 01:45:39;;;;;;;12.75;9.63;;;9.30;95.20;;;;;;2095988;28;20063;-91
2021/11/14 01:46:40;;;;;;;13.02;9.57;;;9.30;95.20;;;;;;2078525;28;20026;-91
2021/11/14 01:47:41;;;;;;;12.40;9.63;;;9.30;95.20;;;;;;2097924;28;20025;-92
2021/11/14 01:48:42;;;;;;;12.65;9.15;;;9.30;95.20;;;;;;2091083;28;20043;-92
2021/11/14 01:49:42;;;;;;;13.70;10.00;;;9.30;95.20;;;;;;2099848;28;20030;-92
2021/11/14 01:50:44;;;;;;;12.48;9.25;;;9.40;95.20;;;;;;2107829;28;20497;-92
2021/11/14 01:51:45;;;;;;;13.05;9.88;;;9.40;95.20;;;;;;2099197;28;20401;-92
2021/11/14 01:52:48;;;;;;;13.93;9.80;;;9.40;95.20;;;;;;2107711;28;20028;-91
2021/11/14 01:53:49;;;;;;;12.95;9.48;;;9.40;95.20;;;;;;2098846;28;20016;-91
2021/11/14 01:54:51;;;;;;;12.98;9.63;;;9.40;95.20;;;;;;2103560;28;20028;-92
2021/11/14 01:55:52;;;;;;;13.05;9.40;;;9.30;95.20;;;;;;2099788;28;20106;-91
2021/11/14 01:56:53;;;;;;;14.13;9.73;;;9.40;95.20;;;;;;2099671;28;20072;-90
2021/11/14 01:57:55;;;;;;;14.05;10.10;;;9.40;95.10;;;;;;2097066;28;20032;-91
2021/11/14 01:58:56;;;;;;;12.52;9.30;;;9.40;95.10;;;;;;2100933;28;20045;-87
2021/11/14 01:59:56;;;;;;;13.55;9.32;;;9.40;95.40;;;;;;2110403;28;20109;-86
2021/11/14 02:01:01;;;;;;;13.05;9.60;;;9.40;95.10;;;;;;2108675;28;20016;-87
2021/11/14 02:02:02;;;;;;;13.40;9.50;;;9.40;95.10;;;;;;2117559;28;20020;-92
2021/11/14 02:03:02;;;;;;;12.63;9.07;;;9.40;95.10;;;;;;2120613;28;20008;-85
2021/11/14 02:04:05;;;;;;;13.57;9.55;;;9.40;95.10;;;;;;2125573;28;20083;-88
2021/11/14 02:05:08;;;;;;;15.30;9.88;;;9.40;95.10;;;;;;2116305;28;20008;-85
2021/11/14 02:06:10;;;;;;;13.73;9.93;;;9.40;95.10;;;;;;2110005;28;20043;-91
2021/11/14 02:07:14;;;;;;;12.45;8.82;;;9.40;95.10;;;;;;2123901;28;20015;-89
2021/11/14 02:08:15;;;;;;;12.57;8.65;;;9.40;95.10;;;;;;2122303;28;20020;-88
2021/11/14 02:09:16;;;;;;;13.70;9.82;;;9.40;95.10;;;;;;2108190;28;20509;-92
2021/11/14 02:10:17;;;;;;;13.10;9.85;;;9.40;95.10;;;;;;2104571;28;20063;-91
2021/11/14 02:11:19;;;;;;;13.45;9.60;;;9.30;95.10;;;;;;2097400;28;20025;-91
2021/11/14 02:12:22;;;;;;;15.13;9.95;;;9.30;95.10;;;;;;2093111;28;20055;-89
2021/11/14 02:13:23;;;;;;;14.32;10.27;;;9.30;95.10;;;;;;2103787;28;20471;-91
2021/11/14 02:14:24;;;;;;;14.73;10.07;;;9.30;95.10;;;;;;2107115;28;20028;-92
2021/11/14 02:15:25;;;;;;;14.43;9.90;;;9.30;95.10;;;;;;2107567;28;20050;-92
2021/11/14 02:16:28;;;;;;;14.05;9.85;;;9.30;95.10;;;;;;2114978;28;20035;-91
2021/11/14 02:17:30;;;;;;;14.88;10.50;;;9.30;95.10;;;;;;2114412;28;20067;-91
2021/11/14 02:18:31;;;;;;;13.93;10.10;;;9.30;95.10;;;;;;2107817;28;20034;-91
2021/11/14 02:19:32;;;;;;;14.60;9.77;;;9.30;95.20;;;;;;2107132;28;20035;-91
2021/11/14 02:20:33;;;;;;;14.00;10.07;;;9.30;95.20;;;;;;2107103;28;20432;-91
2021/11/14 02:21:35;;;;;;;13.52;10.05;;;9.20;95.20;;;;;;2107485;28;20027;-91
2021/11/14 02:22:36;;;;;;;14.73;10.30;;;9.20;95.20;;;;;;2106982;28;20071;-91
2021/11/14 02:23:39;;;;;;;14.75;10.68;;;9.20;95.20;;;;;;2110171;28;20032;-91
2021/11/14 02:24:39;;;;;;;16.63;10.85;;;9.20;95.20;;;;;;2107347;28;20058;-91
2021/11/14 02:25:40;;;;;;;15.05;10.50;;;9.20;95.20;;;;;;2104024;28;20091;-91
2021/11/14 02:26:41;;;;;;;16.13;10.50;;;9.20;95.20;;;;;;2107629;28;20029;-90
2021/11/14 02:27:43;;;;;;;15.23;10.35;;;9.20;95.20;;;;;;2106258;28;20118;-92
2021/11/14 02:28:44;;;;;;;15.23;10.57;;;9.20;95.20;;;;;;2090737;28;20025;-91
2021/11/14 02:29:44;;;;;;;14.32;10.13;;;9.20;95.20;;;;;;2081772;28;20021;-90
2021/11/14 02:30:47;;;;;;;13.23;9.68;;;9.20;95.20;;;;;;2081227;28;20030;-91
2021/11/14 02:31:48;;;;;;;14.65;10.15;;;9.20;95.20;;;;;;2094931;28;20021;-91
2021/11/14 02:32:50;;;;;;;15.25;10.70;;;9.10;95.20;;;;;;2106233;28;20044;-92
2021/11/14 02:33:52;;;;;;;15.65;10.98;;;9.10;95.20;;;;;;2105062;28;20039;-92
2021/11/14 02:34:52;;;;;;;15.95;10.68;;;9.10;95.20;;;;;;2107338;28;20058;-92
2021/11/14 02:35:57;;;;;;;15.80;10.85;;;9.10;95.20;;;;;;2114927;28;20088;-92
2021/11/14 02:36:57;;;;;;;17.05;11.25;;;9.10;95.20;;;;;;2107631;28;20150;-91
2021/11/14 02:37:58;;;;;;;15.95;10.73;;;9.10;95.20;;;;;;2103893;28;20504;-92
2021/11/14 02:38:59;;;;;;;17.13;11.65;;;9.10;95.20;;;;;;2099033;28;20035;-92
2021/11/14 02:40:01;;;;;;;16.65;11.60;;;9.10;95.20;;;;;;2105057;28;20064;-92
2021/11/14 02:41:02;;;;;;;17.27;11.93;;;9.10;95.30;;;;;;2099418;28;20043;-92
2021/11/14 02:42:03;;;;;;;16.33;11.15;;;9.10;95.30;;;;;;2100633;28;20134;-91
2021/11/14 02:43:04;;;;;;;17.85;12.25;;;9.10;95.30;;;;;;2099007;28;20027;-92
2021/11/14 02:44:05;;;;;;;17.88;12.20;;;9.10;95.30;;;;;;2098500;28;20168;-91
2021/11/14 02:45:09;;;;;;;16.17;10.82;;;9.10;95.30;;;;;;2090224;28;20021;-92
2021/11/14 02:46:10;;;;;;;15.48;11.25;;;9.20;95.30;;;;;;2091466;28;22063;-92
2021/11/14 02:47:11;;;;;;;17.38;11.48;;;9.20;95.30;;;;;;2104549;28;20051;-92
2021/11/14 02:48:13;;;;;;;17.08;11.70;;;9.20;95.20;;;;;;2106481;28;20036;-92
2021/11/14 02:49:14;;;;;;;18.95;12.35;;;9.20;95.20;;;;;;2100864;28;20481;-92
2021/11/14 02:50:16;;;;;;;19.85;12.93;;;9.20;95.20;;;;;;2106034;28;20028;-92
2021/11/14 02:51:20;;;;;;;18.55;12.38;;;9.20;95.20;;;;;;2107259;28;20417;-92
2021/11/14 02:52:20;;;;;;;19.73;12.45;;;9.20;95.20;;;;;;2106851;28;20016;-92
2021/11/14 02:53:22;;;;;;;18.58;12.68;;;9.20;95.20;;;;;;2105481;28;20074;-91
2021/11/14 02:54:22;;;;;;;19.55;12.98;;;9.20;95.20;;;;;;2097423;28;20021;-91
2021/11/14 02:55:25;;;;;;;21.20;12.57;;;9.20;95.20;;;;;;2097815;28;20170;-92
2021/11/14 02:56:27;;;;;;;20.45;12.98;;;9.20;95.20;;;;;;2098982;28;20486;-92
2021/11/14 02:57:28;;;;;;;20.55;12.93;;;9.20;95.20;;;;;;2114665;28;20011;-91
2021/11/14 02:58:30;;;;;;;18.23;12.63;;;9.20;95.20;;;;;;2115890;28;20062;-92
2021/11/14 02:59:32;;;;;;;18.45;12.80;;;9.20;95.40;;;;;;2106279;28;20081;-92
2021/11/14 03:00:39;;;;;;;20.13;13.23;;;9.30;95.20;;;;;;2098495;28;20549;-92
2021/11/14 03:01:48;;;;;;;19.80;12.52;;;9.30;95.20;;;;;;2100580;28;20536;-91
2021/11/14 03:02:49;;;;;;;18.63;12.80;;;9.30;95.20;;;;;;2099711;28;20043;-91
2021/11/14 03:03:51;;;;;;;19.45;12.55;;;9.30;95.20;;;;;;2107033;28;20081;-92
2021/11/14 03:04:51;;;;;;;21.35;13.07;;;9.30;95.20;;;;;;2097849;28;20032;-91
2021/11/14 03:05:53;;;;;;;20.25;12.85;;;9.30;95.20;;;;;;2106570;28;20043;-92
2021/11/14 03:06:56;;;;;;;19.00;12.68;;;9.30;95.20;;;;;;2110080;28;20019;-92
2021/11/14 03:07:58;;;;;;;21.15;13.45;;;9.30;95.20;;;;;;2095410;28;20467;-91
2021/11/14 03:08:59;;;;;;;19.90;12.95;;;9.30;95.10;;;;;;2100196;28;20029;-91
2021/11/14 03:09:59;;;;;;;19.15;12.68;;;9.30;95.10;;;;;;2106354;28;20061;-91
2021/11/14 03:11:01;;;;;;;23.52;14.25;;;9.30;95.10;;;;;;2102819;28;20017;-92
2021/11/14 03:12:03;;;;;;;22.00;13.15;;;9.30;95.10;;;;;;2093467;28;20025;-92
2021/11/14 03:13:12;;;;;;;23.35;14.57;;;9.40;95.20;;;;;;2106783;28;20044;-91
2021/11/14 03:14:13;;;;;;;23.55;14.23;;;9.30;95.20;;;;;;2107419;28;20022;-90
2021/11/14 03:15:14;;;;;;;23.08;13.93;;;9.40;95.20;;;;;;2107740;28;20042;-92
2021/11/14 03:16:17;;;;;;;22.25;13.85;;;9.30;95.10;;;;;;2107343;28;20051;-92
2021/11/14 03:17:18;;;;;;;22.92;14.73;;;9.40;95.10;;;;;;2115750;28;20023;-92
2021/11/14 03:18:20;;;;;;;22.23;14.15;;;9.40;95.10;;;;;;2109943;28;20059;-92
2021/11/14 03:19:21;;;;;;;24.75;15.32;;;9.40;95.10;;;;;;2106634;28;20489;-92
2021/11/14 03:20:21;;;;;;;24.95;15.00;;;9.40;95.10;;;;;;2107393;28;20105;-91
2021/11/14 03:21:24;;;;;;;24.48;15.25;;;9.40;95.10;;;;;;2114989;28;20484;-92
2021/11/14 03:22:24;;;;;;;24.42;14.95;;;9.40;95.10;;;;;;2105841;28;20109;-91
2021/11/14 03:23:27;;;;;;;22.00;14.23;;;9.40;95.10;;;;;;2115133;28;20012;-91
2021/11/14 03:24:28;;;;;;;23.40;14.77;;;9.40;95.10;;;;;;2118478;28;20088;-90
2021/11/14 03:25:30;;;;;;;25.13;15.23;;;9.40;95.10;;;;;;2097662;28;20013;-90
2021/11/14 03:26:30;;;;;;;23.90;14.68;;;9.40;95.10;;;;;;2087447;28;20032;-91
2021/11/14 03:27:31;;;;;;;23.48;14.60;;;9.40;95.40;;;;;;2093269;28;20047;-91
2021/11/14 03:28:32;;;;;;;24.42;15.25;;;9.40;95.10;;;;;;2094662;28;20025;-92
2021/11/14 03:29:33;;;;;;;24.40;15.48;;;9.50;95.20;;;;;;2108805;28;20012;-92
2021/11/14 03:30:35;;;;;;;22.25;14.30;;;9.40;95.10;;;;;;2101635;28;20079;-92
2021/11/14 03:31:35;;;;;;;27.67;16.02;;;9.50;95.20;;;;;;2098310;28;20020;-93
2021/11/14 03:32:36;;;;;;;26.83;16.00;;;9.50;95.20;;;;;;2098620;28;20111;-91
2021/11/14 03:33:37;;;;;;;24.52;14.98;;;9.50;95.20;;;;;;2090434;28;20037;-92
2021/11/14 03:34:37;;;;;;;25.75;15.45;;;9.50;95.20;;;;;;2107437;28;20028;-92
2021/11/14 03:35:49;;;;;;;23.45;13.88;;;9.50;95.10;;;;;;2113231;28;20062;-91
2021/11/14 03:36:50;;;;;;;23.25;14.65;;;9.50;95.20;;;;;;2121614;28;20052;-92
2021/11/14 03:37:51;;;;;;;25.00;14.60;;;9.50;95.10;;;;;;2124110;28;20034;-90
2021/11/14 03:38:55;;;;;;;24.17;14.82;;;9.50;95.10;;;;;;2117038;28;20020;-91
2021/11/14 03:39:56;;;;;;;24.88;15.50;;;9.60;95.10;;;;;;2117337;28;20036;-89
2021/11/14 03:40:58;;;;;;;23.58;14.25;;;9.60;95.10;;;;;;2117081;28;20033;-85
2021/11/14 03:41:59;;;;;;;23.75;14.85;;;9.50;95.10;;;;;;2125295;28;20091;-85
2021/11/14 03:43:00;;;;;;;27.88;16.83;;;9.60;95.10;;;;;;2120310;28;20024;-91
2021/11/14 03:44:01;;;;;;;27.20;16.70;;;9.50;95.10;;;;;;2125330;28;20101;-89
2021/11/14 03:45:03;;;;;;;27.60;16.90;;;9.50;95.10;;;;;;2122498;28;20130;-85
2021/11/14 03:46:05;;;;;;;28.58;16.48;;;9.50;95.10;;;;;;2122234;28;20053;-84
2021/11/14 03:47:06;;;;;;;25.00;15.85;;;9.50;95.10;;;;;;2121112;28;20100;-83
2021/11/14 03:48:08;;;;;;;25.52;16.08;;;9.50;95.10;;;;;;2124717;28;20037;-88
2021/11/14 03:49:09;;;;;;;26.00;15.27;;;9.50;95.10;;;;;;2117222;28;20061;-81
2021/11/14 03:50:10;;;;;;;28.63;16.55;;;9.60;95.10;;;;;;2115968;28;20036;-92
2021/11/14 03:51:11;;;;;;;27.13;16.42;;;9.60;95.10;;;;;;2113977;28;20094;-92
2021/11/14 03:52:12;;;;;;;27.65;16.83;;;9.60;95.10;;;;;;2099050;28;20028;-92
2021/11/14 03:53:13;;;;;;;26.67;16.75;;;9.60;95.10;;;;;;2110326;28;20020;-92
2021/11/14 03:54:14;;;;;;;31.90;18.08;;;9.60;95.10;;;;;;2107012;28;20402;-92
2021/11/14 03:55:15;;;;;;;29.35;17.10;;;9.60;95.10;;;;;;2097970;28;20170;-92
2021/11/14 03:56:16;;;;;;;27.58;16.60;;;9.60;95.10;;;;;;2090035;28;20124;-91
2021/11/14 03:57:17;;;;;;;28.38;17.17;;;9.60;95.10;;;;;;2089997;28;20052;-92
2021/11/14 03:58:24;;;;;;;27.00;15.82;;;9.60;95.10;;;;;;2107638;28;20521;-92
2021/11/14 03:59:24;;;;;;;28.60;16.98;;;9.60;95.10;;;;;;2110762;28;20024;-91
2021/11/14 04:00:30;;;;;;;26.05;15.98;;;9.60;95.10;;;;;;2096670;28;20021;-93
2021/11/14 04:01:31;;;;;;;27.77;16.65;;;9.60;95.10;;;;;;2083941;28;20069;-93
2021/11/14 04:02:32;;;;;;;25.23;16.27;;;9.60;95.10;;;;;;2097907;28;20123;-92
2021/11/14 04:03:33;;;;;;;26.90;16.10;;;9.60;95.10;;;;;;2097448;28;20028;-93
2021/11/14 04:04:34;;;;;;;25.13;15.10;;;9.60;95.10;;;;;;2093414;28;20043;-92
2021/11/14 04:05:35;;;;;;;26.00;15.32;;;9.60;95.10;;;;;;2105658;28;20024;-92
2021/11/14 04:06:36;;;;;;;26.77;15.90;;;9.60;95.10;;;;;;2112508;28;20032;-92
2021/11/14 04:07:37;;;;;;;28.17;16.58;;;9.60;95.10;;;;;;2107660;28;20063;-92
2021/11/14 04:08:38;;;;;;;27.67;15.82;;;9.60;95.10;;;;;;2109255;28;20414;-92
2021/11/14 04:09:38;;;;;;;29.92;17.35;;;9.60;95.10;;;;;;2111414;28;20039;-90
2021/11/14 04:10:41;;;;;;;28.67;17.42;;;9.60;95.10;;;;;;2115886;28;20100;-91
2021/11/14 04:11:42;;;;;;;29.10;16.95;;;9.60;95.10;;;;;;2111882;28;20004;-90
2021/11/14 04:12:43;;;;;;;26.65;16.02;;;9.60;95.10;;;;;;2099374;28;20024;-91
2021/11/14 04:13:44;;;;;;;26.13;15.88;;;9.60;95.10;;;;;;2108511;28;20048;-91
2021/11/14 04:14:45;;;;;;;26.40;15.93;;;9.60;95.10;;;;;;2117169;28;20037;-92
2021/11/14 04:15:46;;;;;;;27.85;16.88;;;9.60;95.10;;;;;;2106582;28;20016;-91
2021/11/14 04:16:47;;;;;;;27.20;15.95;;;9.60;95.10;;;;;;2095216;28;20027;-91
2021/11/14 04:17:55;;;;;;;27.45;16.23;;;9.60;95.10;;;;;;2107522;28;20031;-91
2021/11/14 04:18:55;;;;;;;26.45;15.55;;;9.60;95.10;;;;;;2117374;28;20020;-91
2021/11/14 04:19:56;;;;;;;26.50;16.58;;;9.60;95.10;;;;;;2108790;28;20158;-91
2021/11/14 04:20:57;;;;;;;27.08;16.33;;;9.60;95.10;;;;;;2111833;28;20032;-91
2021/11/14 04:21:58;;;;;;;25.25;16.02;;;9.60;95.10;;;;;;2116718;28;20031;-91
2021/11/14 04:22:59;;;;;;;28.98;17.30;;;9.60;95.10;;;;;;2105814;28;20028;-92
2021/11/14 04:24:00;;;;;;;28.75;17.20;;;9.60;95.10;;;;;;2100466;28;20098;-91
2021/11/14 04:25:01;;;;;;;25.25;15.93;;;9.60;95.10;;;;;;2104716;28;20063;-92
2021/11/14 04:26:02;;;;;;;28.27;17.50;;;9.60;95.10;;;;;;2107499;28;20550;-92
2021/11/14 04:27:03;;;;;;;29.70;17.60;;;9.60;95.10;;;;;;2110027;28;20106;-91
2021/11/14 04:28:06;;;;;;;28.70;17.27;;;9.60;95.10;;;;;;2108227;28;20028;-92
2021/11/14 04:29:06;;;;;;;31.02;17.92;;;9.60;95.10;;;;;;2112737;28;20031;-91
2021/11/14 04:30:09;;;;;;;29.35;17.55;;;9.60;95.00;;;;;;2109779;28;20044;-91
2021/11/14 04:31:10;;;;;;;31.20;18.45;;;9.60;95.00;;;;;;2107623;28;20079;-91
2021/11/14 04:32:10;;;;;;;30.13;17.60;;;9.60;95.00;;;;;;2096283;28;20021;-92
2021/11/14 04:33:12;;;;;;;27.40;17.75;;;9.60;95.00;;;;;;2099900;28;20036;-91
2021/11/14 04:34:12;;;;;;;28.58;17.20;;;9.60;95.00;;;;;;2108527;28;20123;-91
2021/11/14 04:35:14;;;;;;;27.95;17.13;;;9.60;95.00;;;;;;2111661;28;20032;-92
2021/11/14 04:36:14;;;;;;;27.65;16.58;;;9.60;95.00;;;;;;2112420;28;20042;-91
2021/11/14 04:37:17;;;;;;;27.88;16.77;;;9.60;95.00;;;;;;2111851;28;20508;-91
2021/11/14 04:38:19;;;;;;;28.23;17.15;;;9.60;95.00;;;;;;2097186;28;20024;-91
2021/11/14 04:39:20;;;;;;;27.45;16.63;;;9.60;95.00;;;;;;2099690;28;20032;-92
2021/11/14 04:40:24;;;;;;;27.35;16.42;;;9.60;95.00;;;;;;2098941;28;20544;-91
2021/11/14 04:41:25;;;;;;;28.38;16.73;;;9.60;95.00;;;;;;2100049;28;20043;-91
2021/11/14 04:42:26;;;;;;;29.23;17.10;;;9.60;95.00;;;;;;2116373;28;20036;-91
2021/11/14 04:43:26;;;;;;;28.33;17.27;;;9.60;95.00;;;;;;2108068;28;20089;-92
2021/11/14 04:44:27;;;;;;;28.13;16.77;;;9.60;95.00;;;;;;2096975;28;20032;-92
2021/11/14 04:45:28;;;;;;;29.60;16.73;;;9.60;95.00;;;;;;2098908;28;20059;-90
2021/11/14 04:46:28;;;;;;;29.85;16.80;;;9.60;95.00;;;;;;2116241;28;20056;-91
2021/11/14 04:47:29;;;;;;;28.83;17.80;;;9.60;95.00;;;;;;2106538;28;20039;-92
2021/11/14 04:48:30;;;;;;;30.95;18.13;;;9.60;95.00;;;;;;2112227;28;20046;-92
2021/11/14 04:49:31;;;;;;;29.70;17.20;;;9.60;95.30;;;;;;2116410;28;20026;-92
2021/11/14 04:50:32;;;;;;;28.67;18.52;;;9.60;95.00;;;;;;2110862;28;20056;-92
2021/11/14 04:51:33;;;;;;;29.02;17.45;;;9.60;95.00;;;;;;2104135;28;20163;-91
2021/11/14 04:52:34;;;;;;;28.58;17.30;;;9.60;95.00;;;;;;2098866;28;20036;-92
2021/11/14 04:53:34;;;;;;;27.60;16.98;;;9.60;95.00;;;;;;2098942;28;20024;-91
2021/11/14 04:54:35;;;;;;;28.33;17.52;;;9.60;95.00;;;;;;2100729;28;20071;-92
2021/11/14 04:55:38;;;;;;;28.95;17.35;;;9.60;95.00;;;;;;2108344;28;20027;-91
2021/11/14 04:56:39;;;;;;;27.02;16.65;;;9.60;95.00;;;;;;2113522;28;20032;-91
2021/11/14 04:57:40;;;;;;;26.55;16.58;;;9.60;95.00;;;;;;2094716;28;20032;-92
2021/11/14 04:58:40;;;;;;;31.77;17.88;;;9.60;95.00;;;;;;2083217;28;20045;-92
2021/11/14 04:59:41;;;;;;;25.27;16.52;;;9.60;94.80;;;;;;2083065;28;20040;-92
2021/11/14 05:00:47;;;;;;;27.10;16.20;;;9.60;95.00;;;;;;2104390;28;20118;-91
2021/11/14 05:01:48;;;;;;;28.13;16.10;;;9.60;95.00;;;;;;2112892;28;20044;-92
2021/11/14 05:02:49;;;;;;;24.83;15.00;;;9.60;95.00;;;;;;2110355;28;20035;-92
2021/11/14 05:03:51;;;;;;;26.33;16.23;;;9.60;95.00;;;;;;2093923;28;20054;-93
2021/11/14 05:04:52;;;;;;;26.70;15.77;;;9.60;95.00;;;;;;2082755;28;20034;-92
2021/11/14 05:05:56;;;;;;;29.92;17.55;;;9.60;95.00;;;;;;2106123;28;20096;-92
2021/11/14 05:06:57;;;;;;;27.10;16.75;;;9.60;95.00;;;;;;2115461;28;20035;-92
2021/11/14 05:07:58;;;;;;;34.30;18.67;;;9.70;95.00;;;;;;2101130;28;20017;-92
2021/11/14 05:08:59;;;;;;;27.48;17.05;;;9.60;95.00;;;;;;2099627;28;20082;-91
2021/11/14 05:10:00;;;;;;;30.27;17.15;;;9.60;95.00;;;;;;2108989;28;20032;-91
2021/11/14 05:11:02;;;;;;;27.27;16.60;;;9.60;95.00;;;;;;2106130;28;20056;-91
2021/11/14 05:12:04;;;;;;;29.88;16.90;;;9.70;95.00;;;;;;2117705;28;20497;-92
2021/11/14 05:13:05;;;;;;;26.50;16.83;;;9.60;95.00;;;;;;2107747;28;20111;-92
2021/11/14 05:14:06;;;;;;;29.48;17.55;;;9.60;95.00;;;;;;2099559;28;20013;-92
2021/11/14 05:15:08;;;;;;;30.13;17.70;;;9.60;95.00;;;;;;2090293;28;20083;-92
2021/11/14 05:16:08;;;;;;;29.13;17.77;;;9.60;95.00;;;;;;2094187;28;20009;-91
2021/11/14 05:17:10;;;;;;;28.38;17.55;;;9.60;94.90;;;;;;2114321;28;20079;-91